createdAt,value
2023-01-28T00:00:55.667Z,3.20
2023-01-28T00:03:26.427Z,3.70
2023-01-28T00:06:07.559Z,5.30
2023-01-28T00:08:36.234Z,4.60
2023-01-28T00:11:06.746Z,6.90
2023-01-28T00:13:35.233Z,5.70
2023-01-28T00:16:05.721Z,5.20
2023-01-28T00:18:34.269Z,5.20
2023-01-28T00:21:12.283Z,4.20
2023-01-28T00:23:42.525Z,4.70
2023-01-28T00:26:13.647Z,4.90
2023-01-28T00:28:43.006Z,5.00
2023-01-28T00:31:23.206Z,4.60
2023-01-28T00:33:52.083Z,6.00
2023-01-28T00:36:22.605Z,5.50
2023-01-28T00:38:52.315Z,10.70
2023-01-28T00:41:22.614Z,7.40
2023-01-28T00:43:53.402Z,5.50
2023-01-28T00:46:23.031Z,3.90
2023-01-28T00:48:51.179Z,3.70
2023-01-28T00:51:20.833Z,3.40
2023-01-28T00:53:50.477Z,3.40
2023-01-28T00:56:19.755Z,3.80
2023-01-28T00:58:48.462Z,4.20
2023-01-28T01:01:18.184Z,3.80
2023-01-28T01:03:46.797Z,3.90
2023-01-28T01:06:16.305Z,3.10
2023-01-28T01:08:50.604Z,3.30
2023-01-28T01:11:19.538Z,3.50
2023-01-28T01:13:52.728Z,3.50
2023-01-28T01:16:22.027Z,3.80
2023-01-28T01:18:52.470Z,3.70
2023-01-28T01:21:23.819Z,3.50
2023-01-28T01:23:52.597Z,3.70
2023-01-28T01:26:21.390Z,3.20
2023-01-28T01:28:51.532Z,3.10
2023-01-28T01:31:21.454Z,2.90
2023-01-28T01:33:50.927Z,2.80
2023-01-28T01:36:22.025Z,3.00
2023-01-28T01:38:55.335Z,2.50
2023-01-28T01:41:30.649Z,2.90
2023-01-28T01:44:04.420Z,2.80
2023-01-28T01:46:35.567Z,3.10
2023-01-28T01:49:42.229Z,3.50
2023-01-28T01:52:22.378Z,3.00
2023-01-28T01:54:55.168Z,3.20
2023-01-28T01:57:29.066Z,2.90
2023-01-28T02:00:06.396Z,2.50
2023-01-28T02:02:48.860Z,2.50
2023-01-28T02:05:20.116Z,2.10
2023-01-28T02:07:51.940Z,2.40
2023-01-28T02:10:20.155Z,2.50
2023-01-28T02:12:56.386Z,2.70
2023-01-28T02:15:27.459Z,2.50
2023-01-28T02:17:57.488Z,2.50
2023-01-28T02:21:04.391Z,2.40
2023-01-28T02:23:58.244Z,2.40
2023-01-28T02:26:45.142Z,2.50
2023-01-28T02:30:01.461Z,2.50
2023-01-28T02:32:57.766Z,2.20
2023-01-28T02:35:35.764Z,2.00
2023-01-28T02:38:29.292Z,2.10
2023-01-28T02:41:06.589Z,2.00
2023-01-28T02:43:39.539Z,1.80
2023-01-28T02:46:41.565Z,2.40
2023-01-28T02:49:16.598Z,2.00
2023-01-28T02:51:56.652Z,2.00
2023-01-28T02:54:24.625Z,1.90
2023-01-28T02:57:40.308Z,1.80
2023-01-28T03:00:24.148Z,1.70
2023-01-28T03:03:12.288Z,1.80
2023-01-28T03:06:03.594Z,1.90
2023-01-28T03:08:54.821Z,1.60
2023-01-28T03:11:42.451Z,1.50
2023-01-28T03:14:30.487Z,1.60
2023-01-28T03:17:20.064Z,1.80
2023-01-28T03:20:07.403Z,1.70
2023-01-28T03:22:59.351Z,2.00
2023-01-28T03:25:46.602Z,1.80
2023-01-28T03:28:39.077Z,2.00
2023-01-28T03:31:30.902Z,2.00
2023-01-28T03:34:21.299Z,1.60
2023-01-28T03:36:50.916Z,1.50
2023-01-28T03:39:39.354Z,1.30
2023-01-28T03:42:14.384Z,1.20
2023-01-28T03:45:04.264Z,1.30
2023-01-28T03:47:34.274Z,1.10
2023-01-28T03:50:06.960Z,1.20
2023-01-28T03:52:41.072Z,1.30
2023-01-28T03:55:17.862Z,1.10
2023-01-28T03:57:46.230Z,1.20
2023-01-28T04:00:18.393Z,1.30
2023-01-28T04:02:47.222Z,1.30
2023-01-28T04:05:20.474Z,1.20
2023-01-28T04:07:51.832Z,1.20
2023-01-28T04:10:49.410Z,1.10
2023-01-28T04:13:25.698Z,1.10
2023-01-28T04:15:53.956Z,0.90
2023-01-28T04:18:27.464Z,1.20
2023-01-28T04:20:58.250Z,1.60
2023-01-28T04:23:26.395Z,2.10
2023-01-28T04:25:56.028Z,2.10
2023-01-28T04:28:24.513Z,1.40
2023-01-28T04:30:53.393Z,1.50
2023-01-28T04:33:47.685Z,1.20
2023-01-28T04:36:27.434Z,1.20
2023-01-28T04:39:27.964Z,1.20
2023-01-28T04:42:19.481Z,1.20
2023-01-28T04:45:07.417Z,1.20
2023-01-28T04:47:55.644Z,1.10
2023-01-28T04:50:31.514Z,1.20
2023-01-28T04:53:21.516Z,1.20
2023-01-28T04:56:00.349Z,1.30
2023-01-28T04:58:31.974Z,1.30
2023-01-28T05:01:04.294Z,1.50
2023-01-28T05:03:35.953Z,1.50
2023-01-28T05:06:05.488Z,1.50
2023-01-28T05:08:46.480Z,1.60
2023-01-28T05:11:15.538Z,1.40
2023-01-28T05:13:44.578Z,1.60
2023-01-28T05:16:15.004Z,1.50
2023-01-28T05:18:44.831Z,1.40
2023-01-28T05:21:16.254Z,1.80
2023-01-28T05:23:45.045Z,1.80
2023-01-28T05:26:13.619Z,1.80
2023-01-28T05:28:41.592Z,1.50
2023-01-28T05:31:11.114Z,1.50
2023-01-28T05:33:40.402Z,1.30
2023-01-28T05:36:11.445Z,1.30
2023-01-28T05:38:40.018Z,1.50
2023-01-28T05:41:08.012Z,2.00
2023-01-28T05:43:37.044Z,1.80
2023-01-28T05:46:27.372Z,1.70
2023-01-28T05:49:12.614Z,2.00
2023-01-28T05:52:10.120Z,2.20
2023-01-28T05:54:38.787Z,2.20
2023-01-28T05:57:08.088Z,2.80
2023-01-28T05:59:36.260Z,2.90
2023-01-28T06:02:04.338Z,3.20
2023-01-28T06:04:32.397Z,3.20
2023-01-28T06:07:00.782Z,3.70
2023-01-28T06:09:29.050Z,3.70
2023-01-28T06:11:57.437Z,3.00
2023-01-28T06:14:25.809Z,2.30
2023-01-28T06:17:29.206Z,2.50
2023-01-28T06:20:05.126Z,2.60
2023-01-28T06:22:33.950Z,2.70
2023-01-28T06:25:01.917Z,4.30
2023-01-28T06:27:30.199Z,7.30
2023-01-28T06:29:58.261Z,5.60
2023-01-28T06:32:26.796Z,4.60
2023-01-28T06:34:55.022Z,4.10
2023-01-28T06:37:25.239Z,3.80
2023-01-28T06:39:54.232Z,3.90
2023-01-28T06:42:22.433Z,3.80
2023-01-28T06:44:50.478Z,3.40
2023-01-28T06:47:18.523Z,3.80
2023-01-28T06:49:46.930Z,3.60
2023-01-28T06:52:14.999Z,3.50
2023-01-28T06:54:43.066Z,9.70
2023-01-28T06:57:11.145Z,7.10
2023-01-28T06:59:39.535Z,5.70
2023-01-28T07:02:09.551Z,5.10
2023-01-28T07:04:37.602Z,7.90
2023-01-28T07:07:05.649Z,7.20
2023-01-28T07:09:33.649Z,7.70
2023-01-28T07:12:05.511Z,7.00
2023-01-28T07:14:33.567Z,5.90
2023-01-28T07:17:01.673Z,7.40
2023-01-28T07:19:29.722Z,12.40
2023-01-28T07:22:00.978Z,13.40
2023-01-28T07:24:30.166Z,10.80
2023-01-28T07:26:58.329Z,10.30
2023-01-28T07:29:26.294Z,10.30
2023-01-28T07:31:54.391Z,11.90
2023-01-28T07:34:22.432Z,13.90
2023-01-28T07:36:50.406Z,12.50
2023-01-28T07:39:18.431Z,12.50
2023-01-28T07:41:47.568Z,11.60
2023-01-28T07:44:32.738Z,9.80
2023-01-28T07:47:00.716Z,9.50
2023-01-28T07:49:28.877Z,10.50
2023-01-28T07:51:56.950Z,14.10
2023-01-28T07:54:25.024Z,15.40
2023-01-28T07:56:53.088Z,22.40
2023-01-28T07:59:21.160Z,27.40
2023-01-28T08:01:49.239Z,27.20
2023-01-28T08:04:17.480Z,23.70
2023-01-28T08:06:45.787Z,20.10
2023-01-28T08:09:14.158Z,20.50
2023-01-28T08:11:42.609Z,20.20
2023-01-28T08:14:11.413Z,19.70
2023-01-28T08:16:39.403Z,16.00
2023-01-28T08:19:07.344Z,15.10
2023-01-28T08:21:35.336Z,15.30
2023-01-28T08:24:03.451Z,18.10
2023-01-28T08:26:31.574Z,16.50
2023-01-28T08:28:59.575Z,14.60
2023-01-28T08:31:29.510Z,12.60
2023-01-28T08:33:58.165Z,11.50
2023-01-28T08:36:27.142Z,8.60
2023-01-28T08:38:55.466Z,8.10
2023-01-28T08:41:24.409Z,8.00
2023-01-28T08:43:52.486Z,10.70
2023-01-28T08:46:20.566Z,8.40
2023-01-28T08:48:50.573Z,7.80
2023-01-28T08:51:18.627Z,6.80
2023-01-28T08:53:46.612Z,6.20
2023-01-28T08:56:15.094Z,3.20
2023-01-28T08:58:43.266Z,3.20
2023-01-28T09:01:11.321Z,5.20
2023-01-28T09:03:39.419Z,3.60
2023-01-28T09:06:07.674Z,1.70
2023-01-28T09:08:35.748Z,1.50
2023-01-28T09:11:03.806Z,1.30
2023-01-28T09:13:31.874Z,0.80
2023-01-28T09:16:00.126Z,0.90
2023-01-28T09:18:28.353Z,1.00
2023-01-28T09:20:56.398Z,0.90
2023-01-28T09:23:24.544Z,2.60
2023-01-28T09:26:00.249Z,2.80
2023-01-28T09:28:28.288Z,3.90
2023-01-28T09:31:08.123Z,4.90
2023-01-28T09:33:38.361Z,4.00
2023-01-28T09:36:08.722Z,2.40
2023-01-28T09:38:36.910Z,2.40
2023-01-28T09:41:23.669Z,3.90
2023-01-28T09:44:05.013Z,2.20
2023-01-28T09:46:35.921Z,2.40
2023-01-28T09:49:17.777Z,3.00
2023-01-28T09:51:52.714Z,5.30
2023-01-28T09:54:43.792Z,6.10
2023-01-28T09:57:23.969Z,5.80
2023-01-28T09:59:52.660Z,4.50
2023-01-28T10:02:29.633Z,4.30
2023-01-28T10:05:12.314Z,5.00
2023-01-28T10:08:03.424Z,3.10
2023-01-28T10:11:20.692Z,2.30
2023-01-28T10:13:58.887Z,1.70
2023-01-28T10:16:38.636Z,2.80
2023-01-28T10:19:23.370Z,2.90
2023-01-28T10:21:59.042Z,3.50
2023-01-28T10:24:39.209Z,3.70
2023-01-28T10:27:27.303Z,3.50
2023-01-28T10:29:56.017Z,3.30
2023-01-28T10:32:37.200Z,3.70
2023-01-28T10:35:05.944Z,3.90
2023-01-28T10:37:37.356Z,3.80
2023-01-28T10:40:08.127Z,3.30
2023-01-28T10:42:39.308Z,3.50
2023-01-28T10:45:20.872Z,2.10
2023-01-28T10:48:02.521Z,2.30
2023-01-28T10:50:31.754Z,2.20
2023-01-28T10:53:02.417Z,2.30
2023-01-28T10:55:37.449Z,2.20
2023-01-28T10:58:05.802Z,1.70
2023-01-28T11:00:37.200Z,1.90
2023-01-28T11:03:05.351Z,2.10
2023-01-28T11:05:33.539Z,2.20
2023-01-28T11:08:15.517Z,2.00
2023-01-28T11:10:44.919Z,2.30
2023-01-28T11:13:24.099Z,1.50
2023-01-28T11:16:01.131Z,1.40
2023-01-28T11:18:52.339Z,1.60
2023-01-28T11:21:24.922Z,2.30
2023-01-28T11:24:16.479Z,2.40
2023-01-28T11:26:49.521Z,2.70
2023-01-28T11:29:33.782Z,3.00
2023-01-28T11:32:02.570Z,2.80
2023-01-28T11:34:35.341Z,2.60
2023-01-28T11:37:13.667Z,1.90
2023-01-28T11:39:42.113Z,1.80
2023-01-28T11:42:22.077Z,2.60
2023-01-28T11:44:50.429Z,3.10
2023-01-28T11:47:21.511Z,3.30
2023-01-28T11:50:00.751Z,3.00
2023-01-28T11:53:07.538Z,2.80
2023-01-28T11:55:39.481Z,3.00
2023-01-28T11:58:13.933Z,2.40
2023-01-28T12:00:47.266Z,2.50
2023-01-28T12:03:43.292Z,2.70
2023-01-28T12:06:35.700Z,2.30
2023-01-28T12:09:35.876Z,2.30
2023-01-28T12:12:19.206Z,2.70
2023-01-28T12:14:49.774Z,4.30
2023-01-28T12:17:52.721Z,4.40
2023-01-28T12:20:46.189Z,3.50
2023-01-28T12:23:20.301Z,2.40
2023-01-28T12:26:00.453Z,3.00
2023-01-28T12:28:34.363Z,2.40
2023-01-28T12:31:08.604Z,2.20
2023-01-28T12:34:01.839Z,2.40
2023-01-28T12:36:51.333Z,2.80
2023-01-28T12:39:19.283Z,2.40
2023-01-28T12:41:57.278Z,2.40
2023-01-28T12:44:39.787Z,2.30
2023-01-28T12:47:12.161Z,2.50
2023-01-28T12:49:51.096Z,3.30
2023-01-28T12:52:23.967Z,3.30
2023-01-28T12:55:18.919Z,4.00
2023-01-28T12:57:48.939Z,4.10
2023-01-28T13:00:32.779Z,4.40
2023-01-28T13:03:30.798Z,3.50
2023-01-28T13:06:48.658Z,3.60
2023-01-28T13:09:24.701Z,3.30
2023-01-28T13:11:57.067Z,3.50
2023-01-28T13:14:32.100Z,3.20
2023-01-28T13:17:24.744Z,3.40
2023-01-28T13:19:52.819Z,3.20
2023-01-28T13:22:39.009Z,3.50
2023-01-28T13:25:34.846Z,3.80
2023-01-28T13:28:06.109Z,4.00
2023-01-28T13:30:47.402Z,3.70
2023-01-28T13:33:34.691Z,3.70
2023-01-28T13:36:18.231Z,4.00
2023-01-28T13:38:46.874Z,3.90
2023-01-28T13:41:14.970Z,4.20
2023-01-28T13:43:43.154Z,4.00
2023-01-28T13:46:26.269Z,4.30
2023-01-28T13:48:57.718Z,4.30
2023-01-28T13:51:37.869Z,4.60
2023-01-28T13:54:17.496Z,4.90
2023-01-28T13:57:01.161Z,5.90
2023-01-28T13:59:48.678Z,6.20
2023-01-28T14:02:41.307Z,7.50
2023-01-28T14:05:39.395Z,8.80
2023-01-28T14:08:39.715Z,8.70
2023-01-28T14:11:13.451Z,8.00
2023-01-28T14:13:59.941Z,7.60
2023-01-28T14:16:38.748Z,9.30
2023-01-28T14:19:13.581Z,9.00
2023-01-28T14:21:41.852Z,9.90
2023-01-28T14:24:17.848Z,8.30
2023-01-28T14:27:08.299Z,8.10
2023-01-28T14:30:00.946Z,7.70
2023-01-28T14:32:31.779Z,7.90
2023-01-28T14:35:05.993Z,8.00
2023-01-28T14:37:34.272Z,7.20
2023-01-28T14:40:08.148Z,7.10
2023-01-28T14:42:40.230Z,6.80
2023-01-28T14:45:23.674Z,6.80
2023-01-28T14:47:54.617Z,6.90
2023-01-28T14:50:32.522Z,7.10
2023-01-28T14:53:29.355Z,7.30
2023-01-28T14:56:35.572Z,8.80
2023-01-28T14:59:22.843Z,9.10
2023-01-28T15:01:56.083Z,8.50
2023-01-28T15:04:33.736Z,8.00
2023-01-28T15:07:16.344Z,8.00
2023-01-28T15:09:45.493Z,7.50
2023-01-28T15:12:16.166Z,8.10
2023-01-28T15:14:47.352Z,8.90
2023-01-28T15:17:27.773Z,9.60
2023-01-28T15:19:57.863Z,9.60
2023-01-28T15:22:28.927Z,9.70
2023-01-28T15:24:57.208Z,8.80
2023-01-28T15:27:32.503Z,9.00
2023-01-28T15:30:00.821Z,8.80
2023-01-28T15:32:31.478Z,9.40
2023-01-28T15:35:01.367Z,11.10
2023-01-28T15:37:29.532Z,16.80
2023-01-28T15:40:02.727Z,16.20
2023-01-28T15:42:31.998Z,13.50
2023-01-28T15:45:00.756Z,11.20
2023-01-28T15:47:35.574Z,10.70
2023-01-28T15:50:07.504Z,10.50
2023-01-28T15:52:41.440Z,10.70
2023-01-28T15:55:29.780Z,20.10
2023-01-28T15:58:09.526Z,23.50
2023-01-28T16:00:37.725Z,20.00
2023-01-28T16:03:09.893Z,21.90
2023-01-28T16:05:41.471Z,11.10
2023-01-28T16:08:15.195Z,9.40
2023-01-28T16:10:51.992Z,8.60
2023-01-28T16:13:23.229Z,10.20
2023-01-28T16:15:54.167Z,11.00
2023-01-28T16:18:44.168Z,11.40
2023-01-28T16:21:19.380Z,11.90
2023-01-28T16:24:00.685Z,12.30
2023-01-28T16:26:31.139Z,14.30
2023-01-28T16:29:11.827Z,14.50
2023-01-28T16:31:39.862Z,15.10
2023-01-28T16:34:10.559Z,16.90
2023-01-28T16:36:38.850Z,15.30
2023-01-28T16:39:06.895Z,14.60
2023-01-28T16:41:43.992Z,15.30
2023-01-28T16:44:16.558Z,14.20
2023-01-28T16:46:44.902Z,15.10
2023-01-28T16:49:13.018Z,15.60
2023-01-28T16:51:44.248Z,15.20
2023-01-28T16:54:15.780Z,15.40
2023-01-28T16:56:46.502Z,16.00
2023-01-28T16:59:16.371Z,15.70
2023-01-28T17:01:44.902Z,14.80
2023-01-28T17:04:13.500Z,14.90
2023-01-28T17:06:44.588Z,15.40
2023-01-28T17:09:14.055Z,14.90
2023-01-28T17:11:42.395Z,14.50
2023-01-28T17:14:11.948Z,13.70
2023-01-28T17:16:40.570Z,13.80
2023-01-28T17:19:08.805Z,14.50
2023-01-28T17:21:37.091Z,15.70
2023-01-28T17:24:06.009Z,16.70
2023-01-28T17:26:35.581Z,17.90
2023-01-28T17:29:07.754Z,17.50
2023-01-28T17:31:36.558Z,17.40
2023-01-28T17:34:07.160Z,17.20
2023-01-28T17:36:35.540Z,17.80
2023-01-28T17:39:07.185Z,16.70
2023-01-28T17:41:35.261Z,17.50
2023-01-28T17:44:04.767Z,18.90
2023-01-28T17:46:32.825Z,18.40
2023-01-28T17:49:02.442Z,18.50
2023-01-28T17:51:30.440Z,19.20
2023-01-28T17:53:58.776Z,19.60
2023-01-28T17:56:28.900Z,18.70
2023-01-28T17:58:59.559Z,15.70
2023-01-28T18:01:27.752Z,15.30
2023-01-28T18:03:56.345Z,14.80
2023-01-28T18:06:24.462Z,14.70
2023-01-28T18:08:52.461Z,14.70
2023-01-28T18:11:20.804Z,13.50
2023-01-28T18:13:49.382Z,14.40
2023-01-28T18:16:19.921Z,19.00
2023-01-28T18:18:49.778Z,24.60
2023-01-28T18:21:46.461Z,17.70
2023-01-28T18:24:18.588Z,16.60
2023-01-28T18:26:46.811Z,18.20
2023-01-28T18:29:19.146Z,18.50
2023-01-28T18:31:48.744Z,19.00
2023-01-28T18:34:18.189Z,19.90
2023-01-28T18:36:46.671Z,18.50
2023-01-28T18:39:15.722Z,17.40
2023-01-28T18:41:43.934Z,19.60
2023-01-28T18:44:14.765Z,19.70
2023-01-28T18:46:43.107Z,19.80
2023-01-28T18:49:11.216Z,23.30
2023-01-28T18:51:39.296Z,21.60
2023-01-28T18:54:11.593Z,17.90
2023-01-28T18:56:41.474Z,15.30
2023-01-28T18:59:13.032Z,14.00
2023-01-28T19:01:42.838Z,13.40
2023-01-28T19:04:11.216Z,13.30
2023-01-28T19:06:39.283Z,12.20
2023-01-28T19:09:10.040Z,11.40
2023-01-28T19:11:38.679Z,11.90
2023-01-28T19:14:08.509Z,12.10
2023-01-28T19:16:37.496Z,12.00
2023-01-28T19:19:06.164Z,11.80
2023-01-28T19:21:34.400Z,11.80
2023-01-28T19:24:07.213Z,12.10
2023-01-28T19:26:36.342Z,12.30
2023-01-28T19:29:09.466Z,12.30
2023-01-28T19:31:39.295Z,12.20
2023-01-28T19:34:08.851Z,12.30
2023-01-28T19:36:37.307Z,12.00
2023-01-28T19:39:08.114Z,11.80
2023-01-28T19:41:36.903Z,12.20
2023-01-28T19:44:05.986Z,12.40
2023-01-28T19:46:36.276Z,12.40
2023-01-28T19:49:05.944Z,13.00
2023-01-28T19:51:34.365Z,13.00
2023-01-28T19:54:02.634Z,13.00
2023-01-28T19:56:31.004Z,13.20
2023-01-28T19:58:58.973Z,13.60
2023-01-28T20:01:30.228Z,14.70
2023-01-28T20:04:00.618Z,14.40
2023-01-28T20:06:30.979Z,14.00
2023-01-28T20:09:01.395Z,13.20
2023-01-28T20:11:29.820Z,12.90
2023-01-28T20:13:58.124Z,13.60
2023-01-28T20:16:31.634Z,13.60
2023-01-28T20:19:02.692Z,13.50
2023-01-28T20:21:32.286Z,13.20
2023-01-28T20:24:02.568Z,13.50
2023-01-28T20:26:33.653Z,12.60
2023-01-28T20:29:04.082Z,13.00
2023-01-28T20:31:33.749Z,13.10
2023-01-28T20:34:02.291Z,12.90
2023-01-28T20:36:30.748Z,13.70
2023-01-28T20:38:59.746Z,13.60
2023-01-28T20:41:27.820Z,13.70
2023-01-28T20:43:56.612Z,13.60
2023-01-28T20:46:30.250Z,14.00
2023-01-28T20:49:00.146Z,14.10
2023-01-28T20:51:30.128Z,14.00
2023-01-28T20:54:00.635Z,13.80
2023-01-28T20:56:32.743Z,14.00
2023-01-28T20:59:03.876Z,14.20
2023-01-28T21:01:34.682Z,13.80
2023-01-28T21:04:04.717Z,13.80
2023-01-28T21:06:32.886Z,13.80
2023-01-28T21:09:01.214Z,13.80
2023-01-28T21:11:29.540Z,13.60
2023-01-28T21:13:58.002Z,13.20
2023-01-28T21:16:26.405Z,13.60
2023-01-28T21:18:54.790Z,13.80
2023-01-28T21:21:29.311Z,13.60
2023-01-28T21:24:00.344Z,14.20
2023-01-28T21:26:29.037Z,13.50
2023-01-28T21:28:57.203Z,13.00
2023-01-28T21:31:26.813Z,13.50
2023-01-28T21:33:56.924Z,13.00
2023-01-28T21:36:26.189Z,13.70
2023-01-28T21:38:56.877Z,13.60
2023-01-28T21:41:25.410Z,13.70
2023-01-28T21:43:54.906Z,13.90
2023-01-28T21:46:26.464Z,13.20
2023-01-28T21:48:56.527Z,13.60
2023-01-28T21:51:46.192Z,13.30
2023-01-28T21:54:19.724Z,13.30
2023-01-28T21:56:50.070Z,13.50
2023-01-28T21:59:28.645Z,13.90
2023-01-28T22:02:09.897Z,13.60
2023-01-28T22:04:43.299Z,13.70
2023-01-28T22:07:17.030Z,13.60
2023-01-28T22:09:47.018Z,13.40
2023-01-28T22:12:16.016Z,13.80
2023-01-28T22:14:45.530Z,13.80
2023-01-28T22:17:14.891Z,14.20
2023-01-28T22:19:48.085Z,14.40
2023-01-28T22:22:16.584Z,14.70
2023-01-28T22:24:44.963Z,15.40
2023-01-28T22:27:14.278Z,15.30
2023-01-28T22:29:42.329Z,14.80
2023-01-28T22:32:10.398Z,15.10
2023-01-28T22:34:38.879Z,15.20
2023-01-28T22:37:07.466Z,15.30
2023-01-28T22:39:35.535Z,15.10
2023-01-28T22:42:03.608Z,16.00
2023-01-28T22:44:31.541Z,16.60
2023-01-28T22:46:59.542Z,17.80
2023-01-28T22:49:27.528Z,18.10
2023-01-28T22:51:55.477Z,17.40
2023-01-28T22:54:23.755Z,15.50
2023-01-28T22:56:51.826Z,15.00
2023-01-28T22:59:20.098Z,14.50
2023-01-28T23:01:48.103Z,14.50
2023-01-28T23:04:16.135Z,14.70
2023-01-28T23:06:44.205Z,14.00
2023-01-28T23:09:12.180Z,14.10
2023-01-28T23:11:40.253Z,13.30
2023-01-28T23:14:26.953Z,14.10
2023-01-28T23:17:13.567Z,13.60
2023-01-28T23:20:00.983Z,13.60
2023-01-28T23:22:50.772Z,13.20
2023-01-28T23:25:20.118Z,13.20
2023-01-28T23:27:48.134Z,12.10
2023-01-28T23:30:17.487Z,12.50
2023-01-28T23:32:50.081Z,12.60
2023-01-28T23:35:22.011Z,12.90
2023-01-28T23:37:50.036Z,11.90
2023-01-28T23:40:19.531Z,10.20
2023-01-28T23:42:49.711Z,9.50
2023-01-28T23:45:18.680Z,10.20
2023-01-28T23:47:47.102Z,10.00
2023-01-28T23:50:16.004Z,10.60
2023-01-28T23:52:44.199Z,10.10
2023-01-28T23:55:12.159Z,9.40
2023-01-28T23:57:40.129Z,8.80
